Decoded Metar for LELN (LEON in SPAIN) (IATA:N/A) | Meteo·Mobile Aviation Weather
aviador You're here:

LELN Decoded Metar

LEON in SPAIN
Report Time2019-10-22 13:00:00
UTC Time2019-10-22 13:28:08
Flight Rules vfr VFR
Wind060° at 12 kt
W.Decomp.*RWY 06: 12.0 kt HW 0.4 kt RCW
RWY 05: 11.7 kt HW 2.5 kt RCW
Visibility9999 m
Phenomena:N/A
Clouds:Few 055 Hf
Expected CloudBase > 4,800 ft AGL from Temp-Dew spread
CeilingNone
Temp13°C (ISA +4)
Dew Point01°C (44% RH)
AAT6.8°C
QNH1015 hPa
Density Alt3,494 ft
Elevation2,999 ft
Report Wrong Elevation
Raw Report
LELN 221300Z 06012KT 020V100 9999 FEW055 13/01 Q1015=

Extra information for LELN:More info

Metar Taf Metar & Taf Last 4 Metars F.Rules Stats Wind Profile Meteogram Temp Stats Airport Information Weather charts Add Link Nearby VenuesMetar ALERT Operation Metar Decoded Social comments